Time;durP1;ratioP1;P1;durP2;ratioP2;P2;SDS_P1;SDS_P2;PMS_P1;PMS_P2;Temp;Humidity;BMP_temperature;BMP_pressure;BME280_temperature;BME280_humidity;BME280_pressure;Samples;Min_cycle;Max_cycle;Signal;HPM_P1;HPM_P2
2022/10/30 00:00:48;;;;;;;17.92;12.73;;;;;;;;;;6361856;22;19902;-86
2022/10/30 00:03:14;;;;;;;;;;;;;;;;;;6285051;22;20015;-85
2022/10/30 00:05:43;;;;;;;17.10;13.65;;;;;;;;;;6335434;22;19913;-87
2022/10/30 00:08:10;;;;;;;16.63;13.68;;;;;;;;;;6360711;22;20010;-86
2022/10/30 00:10:35;;;;;;;;;;;;;;;;;;6334655;22;20024;-85
2022/10/30 00:13:02;;;;;;;17.02;12.63;;;;;;;;;;6363654;22;19890;-87
2022/10/30 00:15:29;;;;;;;20.85;13.23;;;;;;;;;;6363527;22;20006;-86
2022/10/30 00:17:59;;;;;;;17.08;11.35;;;;;;;;;;6361226;22;20009;-87
2022/10/30 00:20:27;;;;;;;15.45;11.57;;;;;;;;;;6360532;22;20049;-86
2022/10/30 00:22:53;;;;;;;16.48;12.30;;;;;;;;;;6335586;22;20021;-86
2022/10/30 00:25:19;;;;;;;;;;;;;;;;;;6334202;22;20446;-84
2022/10/30 00:27:44;;;;;;;16.00;11.48;;;;;;;;;;6334218;22;19930;-85
2022/10/30 00:30:10;;;;;;;;;;;;;;;;;;6331540;22;20032;-84
2022/10/30 00:32:35;;;;;;;16.13;11.32;;;;;;;;;;6350471;22;19910;-85
2022/10/30 00:35:01;;;;;;;;;;;;;;;;;;6323349;22;20439;-86
2022/10/30 00:37:26;;;;;;;15.95;11.35;;;;;;;;;;6323221;22;19991;-85
2022/10/30 00:39:52;;;;;;;;;;;;;;;;;;6323282;22;19995;-85
2022/10/30 00:42:17;;;;;;;16.95;11.43;;;;;;;;;;6352111;22;19929;-85
2022/10/30 00:44:42;;;;;;;;;;;;;;;;;;6325613;22;20040;-86
2022/10/30 00:47:16;;;;;;;14.95;11.43;;;;;;;;;;6327533;22;19908;-86
2022/10/30 00:49:52;;;;;;;15.90;11.52;;;;;;;;;;6316959;22;20010;-86
2022/10/30 00:52:18;;;;;;;15.75;11.45;;;;;;;;;;6328176;22;20040;-86
2022/10/30 00:54:43;;;;;;;;;;;;;;;;;;6304040;22;20445;-86
2022/10/30 00:57:11;;;;;;;16.08;11.00;;;;;;;;;;6327345;22;19906;-84
2022/10/30 00:59:36;;;;;;;;;;;;;;;;;;6329375;22;19998;-86
2022/10/30 01:02:03;;;;;;;14.02;10.48;;;;;;;;;;6354887;22;19955;-86
2022/10/30 01:04:28;;;;;;;;;;;;;;;;;;6327993;22;20002;-86
2022/10/30 01:06:54;;;;;;;16.80;10.75;;;;;;;;;;6354745;22;19913;-87
2022/10/30 01:09:19;;;;;;;;;;;;;;;;;;6329382;22;20051;-85
2022/10/30 01:11:45;;;;;;;15.90;10.73;;;;;;;;;;6329999;22;19921;-86
2022/10/30 01:14:10;;;;;;;;;;;;;;;;;;6333636;22;20073;-85
2022/10/30 01:16:41;;;;;;;17.85;11.20;;;;;;;;;;6359594;22;20261;-86
2022/10/30 01:19:32;;;;;;;15.63;10.85;;;;;;;;;;6332579;22;20010;-87
2022/10/30 01:22:04;;;;;;;17.33;10.07;;;;;;;;;;6332015;22;20020;-86
2022/10/30 01:24:41;;;;;;;14.77;10.50;;;;;;;;;;6357726;22;20069;-87
2022/10/30 01:27:07;;;;;;;16.15;11.45;;;;;;;;;;6357187;22;20010;-86
2022/10/30 01:29:34;;;;;;;;;;;;;;;;;;6331846;22;20005;-85
2022/10/30 01:32:19;;;;;;;17.75;9.85;;;;;;;;;;6332904;22;19981;-86
2022/10/30 01:34:48;;;;;;;15.65;10.07;;;;;;;;;;6330896;22;20383;-86
2022/10/30 01:37:29;;;;;;;12.20;9.65;;;;;;;;;;6332136;22;20395;-86
2022/10/30 01:39:55;;;;;;;13.35;9.55;;;;;;;;;;6357423;22;20055;-86
2022/10/30 01:42:20;;;;;;;;;;;;;;;;;;6306518;22;19998;-86
2022/10/30 01:44:46;;;;;;;14.88;9.98;;;;;;;;;;6328199;22;19929;-86
2022/10/30 01:47:16;;;;;;;15.55;10.05;;;;;;;;;;6304157;22;19998;-86
2022/10/30 01:49:46;;;;;;;16.95;10.68;;;;;;;;;;6354581;22;20010;-85
2022/10/30 01:52:13;;;;;;;15.18;10.10;;;;;;;;;;6321859;22;20019;-86
2022/10/30 01:54:58;;;;;;;14.95;10.15;;;;;;;;;;6332123;22;20014;-85
2022/10/30 01:57:47;;;;;;;17.75;9.95;;;;;;;;;;6360116;22;20038;-87
2022/10/30 02:00:13;;;;;;;16.17;11.00;;;;;;;;;;6338077;22;20146;-86
2022/10/30 02:02:38;;;;;;;;;;;;;;;;;;6331359;22;20367;-86
2022/10/30 02:05:05;;;;;;;16.08;9.90;;;;;;;;;;6357943;22;19915;-86
2022/10/30 02:07:31;;;;;;;13.50;8.38;;;;;;;;;;6306624;22;20006;-86
2022/10/30 02:09:57;;;;;;;11.98;7.85;;;;;;;;;;6334607;22;20019;-87
2022/10/30 02:12:26;;;;;;;9.50;7.07;;;;;;;;;;6333363;22;20039;-86
2022/10/30 02:14:52;;;;;;;;;;;;;;;;;;6333615;22;20065;-85
2022/10/30 02:17:17;;;;;;;15.38;7.72;;;;;;;;;;6331903;22;20349;-86
2022/10/30 02:19:43;;;;;;;;;;;;;;;;;;6330439;22;20311;-86
2022/10/30 02:22:09;;;;;;;11.40;7.55;;;;;;;;;;6360567;22;19902;-86
2022/10/30 02:24:34;;;;;;;;;;;;;;;;;;6327613;22;20021;-86
2022/10/30 02:27:00;;;;;;;11.35;8.38;;;;;;;;;;6353602;22;19902;-86
2022/10/30 02:29:25;;;;;;;;;;;;;;;;;;6329287;22;20017;-86
2022/10/30 02:31:51;;;;;;;12.55;8.13;;;;;;;;;;6356794;22;19913;-86
2022/10/30 02:34:16;;;;;;;;;;;;;;;;;;6330843;22;20010;-86
2022/10/30 02:36:42;;;;;;;11.35;7.55;;;;;;;;;;6358348;22;19984;-86
2022/10/30 02:39:07;;;;;;;;;;;;;;;;;;6334739;22;20025;-86
2022/10/30 02:41:34;;;;;;;11.25;8.10;;;;;;;;;;6332623;22;20260;-86
2022/10/30 02:44:00;;;;;;;;;;;;;;;;;;6336574;22;20010;-86
2022/10/30 02:46:26;;;;;;;9.73;7.45;;;;;;;;;;6329895;22;19968;-86
2022/10/30 02:48:51;;;;;;;;;;;;;;;;;;6329285;22;20013;-85
2022/10/30 02:51:17;;;;;;;9.70;6.55;;;;;;;;;;6330074;22;19976;-86
2022/10/30 02:53:42;;;;;;;;;;;;;;;;;;6330473;22;20021;-85
2022/10/30 02:56:12;;;;;;;8.77;5.90;;;;;;;;;;6356226;22;19906;-86
2022/10/30 02:58:39;;;;;;;9.93;6.20;;;;;;;;;;6328410;22;20033;-85
2022/10/30 03:01:09;;;;;;;8.63;5.80;;;;;;;;;;6303448;22;20002;-86
2022/10/30 03:03:35;;;;;;;9.35;5.53;;;;;;;;;;6331400;22;20014;-87
2022/10/30 03:06:00;;;;;;;;;;;;;;;;;;6330457;22;20016;-85
2022/10/30 03:08:26;;;;;;;8.73;6.07;;;;;;;;;;6355329;22;19913;-85
2022/10/30 03:10:51;;;;;;;;;;;;;;;;;;6329480;22;20079;-86
2022/10/30 03:13:17;;;;;;;11.77;6.15;;;;;;;;;;6328585;22;19906;-86
2022/10/30 03:15:42;;;;;;;;;;;;;;;;;;6331084;22;19998;-86
2022/10/30 03:18:08;;;;;;;9.57;5.97;;;;;;;;;;6330811;22;19913;-87
2022/10/30 03:20:39;;;;;;;10.18;6.28;;;;;;;;;;6332707;22;20026;-87
2022/10/30 03:23:05;;;;;;;;;;;;;;;;;;6333708;22;20032;-87
2022/10/30 03:25:31;;;;;;;10.50;6.57;;;;;;;;;;6333166;22;19931;-86
2022/10/30 03:27:58;;;;;;;8.73;6.38;;;;;;;;;;6332882;22;20012;-86
2022/10/30 03:30:24;;;;;;;;;;;;;;;;;;6332590;22;19994;-85
2022/10/30 03:32:51;;;;;;;8.25;5.70;;;;;;;;;;6363044;22;19890;-86
2022/10/30 03:35:16;;;;;;;10.50;5.95;;;;;;;;;;6306736;22;20005;-86
2022/10/30 03:37:42;;;;;;;;;;;;;;;;;;6334614;22;20012;-86
2022/10/30 03:40:08;;;;;;;8.45;5.93;;;;;;;;;;6361914;22;19902;-86
2022/10/30 03:42:38;;;;;;;7.57;4.95;;;;;;;;;;6335883;22;20001;-86
2022/10/30 03:45:04;;;;;;;9.63;5.70;;;;;;;;;;6306261;22;20422;-87
2022/10/30 03:47:30;;;;;;;;;;;;;;;;;;6310187;22;20069;-85
2022/10/30 03:49:55;;;;;;;7.00;4.68;;;;;;;;;;6330707;22;19906;-86
2022/10/30 03:52:22;;;;;;;9.05;4.60;;;;;;;;;;6329000;22;20078;-86
2022/10/30 03:54:48;;;;;;;8.30;5.40;;;;;;;;;;6332161;22;20007;-86
2022/10/30 03:57:17;;;;;;;7.90;4.22;;;;;;;;;;6335710;22;20016;-87
2022/10/30 04:00:06;;;;;;;6.50;4.25;;;;;;;;;;6361906;22;20046;-87
2022/10/30 04:02:47;;;;;;;7.57;3.75;;;;;;;;;;6340952;22;20025;-86
2022/10/30 04:05:14;;;;;;;6.65;3.70;;;;;;;;;;6335711;22;20011;-86
2022/10/30 04:07:40;;;;;;;6.50;3.40;;;;;;;;;;6336373;22;20397;-87
2022/10/30 04:10:08;;;;;;;5.28;3.50;;;;;;;;;;6335373;22;20010;-87
2022/10/30 04:12:33;;;;;;;;;;;;;;;;;;6334038;22;20102;-87
2022/10/30 04:14:59;;;;;;;4.65;2.67;;;;;;;;;;6388704;22;19906;-85
2022/10/30 04:17:25;;;;;;;;;;;;;;;;;;6331360;22;20004;-85
2022/10/30 04:19:51;;;;;;;6.97;2.75;;;;;;;;;;6330222;22;19906;-86
2022/10/30 04:22:16;;;;;;;;;;;;;;;;;;6332029;22;20002;-85
2022/10/30 04:24:43;;;;;;;5.97;2.47;;;;;;;;;;6333065;22;19906;-86
2022/10/30 04:27:09;;;;;;;6.30;2.50;;;;;;;;;;6323097;22;20136;-87
2022/10/30 04:29:36;;;;;;;6.50;2.70;;;;;;;;;;6310139;22;20033;-88
2022/10/30 04:32:02;;;;;;;;;;;;;;;;;;6333539;22;20024;-84
2022/10/30 04:34:27;;;;;;;6.25;2.20;;;;;;;;;;6359635;22;20253;-87
2022/10/30 04:36:53;;;;;;;;;;;;;;;;;;6334528;22;20001;-86
2022/10/30 04:39:18;;;;;;;6.18;2.67;;;;;;;;;;6333699;22;19910;-85
2022/10/30 04:41:46;;;;;;;6.80;2.47;;;;;;;;;;6334700;22;19998;-86
2022/10/30 04:44:18;;;;;;;5.80;2.67;;;;;;;;;;6337044;22;20014;-84
2022/10/30 04:46:43;;;;;;;;;;;;;;;;;;6334749;22;20059;-86
2022/10/30 04:49:11;;;;;;;6.45;2.70;;;;;;;;;;6334749;22;19909;-85
2022/10/30 04:51:37;;;;;;;6.30;2.13;;;;;;;;;;6333623;22;20010;-85
2022/10/30 04:54:04;;;;;;;7.43;2.38;;;;;;;;;;6334846;22;20542;-85
2022/10/30 04:56:31;;;;;;;6.47;2.40;;;;;;;;;;6333296;22;20006;-86
2022/10/30 04:58:58;;;;;;;8.00;2.80;;;;;;;;;;6335372;22;19999;-87
2022/10/30 05:01:23;;;;;;;;;;;;;;;;;;6337815;22;19997;-86
2022/10/30 05:03:49;;;;;;;5.82;2.25;;;;;;;;;;6363824;22;19902;-86
2022/10/30 05:06:20;;;;;;;6.03;2.20;;;;;;;;;;6338536;22;20014;-86
2022/10/30 05:08:46;;;;;;;5.75;2.50;;;;;;;;;;6312874;22;19990;-87
2022/10/30 05:11:23;;;;;;;4.18;2.05;;;;;;;;;;6342613;22;20029;-87
2022/10/30 05:13:48;;;;;;;;;;;;;;;;;;6313468;22;20013;-88
2022/10/30 05:16:15;;;;;;;3.47;2.03;;;;;;;;;;6361013;22;19913;-86
2022/10/30 05:18:41;;;;;;;;;;;;;;;;;;6336674;22;20034;-85
2022/10/30 05:21:06;;;;;;;6.00;2.20;;;;;;;;;;6337692;22;19902;-86
2022/10/30 05:23:32;;;;;;;;;;;;;;;;;;6308819;22;20438;-86
2022/10/30 05:26:01;;;;;;;4.18;2.00;;;;;;;;;;6332988;22;19906;-86
2022/10/30 05:28:29;;;;;;;5.68;2.22;;;;;;;;;;6339154;22;20018;-86
2022/10/30 05:30:56;;;;;;;5.30;2.40;;;;;;;;;;6335237;22;20080;-84
2022/10/30 05:33:51;;;;;;;5.45;2.28;;;;;;;;;;6282037;22;20012;-85
2022/10/30 05:36:17;;;;;;;5.20;2.05;;;;;;;;;;6326645;22;20011;-84
2022/10/30 05:38:42;;;;;;;;;;;;;;;;;;6335596;22;20030;-86
2022/10/30 05:41:14;;;;;;;7.35;2.10;;;;;;;;;;6335656;22;20250;-85
2022/10/30 05:43:40;;;;;;;;;;;;;;;;;;6310883;22;20044;-83
2022/10/30 05:49:40;;;;;;;5.38;1.80;;;;;;;;;;6385681;22;20054;-84
2022/10/30 05:52:13;;;;;;;4.43;1.63;;;;;;;;;;6334033;22;20022;-87
2022/10/30 05:54:39;;;;;;;2.75;1.50;;;;;;;;;;6327798;22;20026;-84
2022/10/30 05:57:28;;;;;;;3.15;1.92;;;;;;;;;;6337102;22;20010;-84
2022/10/30 05:59:54;;;;;;;3.13;1.55;;;;;;;;;;6353548;22;20090;-84
2022/10/30 06:02:19;;;;;;;;;;;;;;;;;;6329521;22;20006;-84
2022/10/30 06:04:45;;;;;;;3.67;1.50;;;;;;;;;;6331510;22;19916;-86
2022/10/30 06:07:12;;;;;;;4.30;1.77;;;;;;;;;;6329326;22;19998;-85
2022/10/30 06:09:38;;;;;;;;;;;;;;;;;;6329029;22;20060;-84
2022/10/30 06:12:22;;;;;;;6.32;2.47;;;;;;;;;;6359378;22;19994;-84
2022/10/30 06:14:59;;;;;;;7.72;1.92;;;;;;;;;;6315293;22;20006;-86
2022/10/30 06:17:29;;;;;;;3.90;1.30;;;;;;;;;;6333109;22;20022;-85
2022/10/30 06:20:16;;;;;;;2.60;0.98;;;;;;;;;;6338232;22;20018;-85
2022/10/30 06:23:04;;;;;;;4.13;1.50;;;;;;;;;;6340288;22;20015;-87
2022/10/30 06:25:40;;;;;;;2.28;1.25;;;;;;;;;;6316227;22;20010;-87
2022/10/30 06:28:32;;;;;;;3.38;1.25;;;;;;;;;;6347876;22;20010;-85
2022/10/30 06:30:57;;;;;;;;;;;;;;;;;;6315929;22;20029;-88
2022/10/30 06:33:23;;;;;;;4.78;1.60;;;;;;;;;;6341588;22;19902;-87
2022/10/30 06:35:50;;;;;;;4.50;1.52;;;;;;;;;;6310325;22;20067;-84
2022/10/30 06:38:17;;;;;;;2.58;1.30;;;;;;;;;;6330494;22;20003;-85
2022/10/30 06:40:53;;;;;;;4.22;1.48;;;;;;;;;;6367822;22;20025;-87
2022/10/30 06:43:29;;;;;;;3.10;1.38;;;;;;;;;;6318629;22;20530;-86
2022/10/30 06:46:06;;;;;;;3.65;1.25;;;;;;;;;;6342138;22;20002;-88
2022/10/30 06:48:40;;;;;;;3.55;1.27;;;;;;;;;;6343355;22;20007;-87
2022/10/30 06:51:06;;;;;;;;;;;;;;;;;;6343336;22;20002;-87
2022/10/30 06:53:35;;;;;;;4.20;1.40;;;;;;;;;;6367035;22;19898;-87
2022/10/30 06:56:20;;;;;;;5.05;1.52;;;;;;;;;;6350183;22;20015;-87
2022/10/30 06:59:19;;;;;;;3.63;1.40;;;;;;;;;;6307103;22;20014;-88
2022/10/30 07:02:11;;;;;;;4.55;1.65;;;;;;;;;;6351651;22;19991;-87
2022/10/30 07:04:47;;;;;;;2.22;0.98;;;;;;;;;;6345119;22;20098;-86
2022/10/30 07:07:13;;;;;;;4.32;1.13;;;;;;;;;;6340609;22;19995;-86
2022/10/30 07:09:38;;;;;;;;;;;;;;;;;;6316830;22;20017;-87
2022/10/30 07:12:04;;;;;;;4.20;1.25;;;;;;;;;;6367828;22;19898;-87
2022/10/30 07:14:52;;;;;;;3.33;1.00;;;;;;;;;;6351337;22;20010;-89
2022/10/30 07:17:41;;;;;;;3.50;1.40;;;;;;;;;;6313396;22;20019;-87
2022/10/30 07:20:15;;;;;;;3.10;1.23;;;;;;;;;;6339487;22;19998;-88
2022/10/30 07:22:41;;;;;;;;;;;;;;;;;;6310280;22;20041;-85
2022/10/30 07:27:54;;;;;;;3.00;1.08;;;;;;;;;;6385422;22;20107;-86
2022/10/30 07:30:53;;;;;;;3.08;1.20;;;;;;;;;;6350320;22;20022;-87
2022/10/30 07:33:39;;;;;;;3.00;0.93;;;;;;;;;;6345846;22;20033;-87
2022/10/30 07:36:18;;;;;;;4.45;1.00;;;;;;;;;;6324899;22;20065;-86
2022/10/30 07:39:24;;;;;;;4.95;1.38;;;;;;;;;;6374479;22;20025;-88
2022/10/30 07:42:08;;;;;;;4.18;0.80;;;;;;;;;;6374179;22;20058;-88
2022/10/30 07:44:53;;;;;;;3.05;1.20;;;;;;;;;;6374552;22;20014;-88
2022/10/30 07:47:46;;;;;;;2.13;0.90;;;;;;;;;;6332833;22;20023;-88
2022/10/30 07:50:31;;;;;;;2.67;1.00;;;;;;;;;;6309386;22;19995;-89
2022/10/30 07:52:57;;;;;;;2.85;0.82;;;;;;;;;;6304128;22;20072;-85
2022/10/30 07:55:45;;;;;;;5.32;1.10;;;;;;;;;;6332316;22;19995;-88
2022/10/30 07:58:11;;;;;;;4.68;1.17;;;;;;;;;;6337864;22;20023;-85
2022/10/30 08:00:55;;;;;;;5.55;1.80;;;;;;;;;;6313349;22;20001;-85
2022/10/30 08:03:35;;;;;;;2.80;1.00;;;;;;;;;;6316387;22;20007;-88
2022/10/30 08:06:30;;;;;;;2.80;0.98;;;;;;;;;;6315509;22;20011;-89
2022/10/30 08:09:02;;;;;;;3.70;0.90;;;;;;;;;;6357279;22;20076;-83
2022/10/30 08:11:28;;;;;;;2.20;1.10;;;;;;;;;;6274112;22;19986;-87
2022/10/30 08:13:56;;;;;;;2.90;1.02;;;;;;;;;;6285444;22;20010;-88
2022/10/30 08:16:24;;;;;;;3.08;0.82;;;;;;;;;;6332940;22;20026;-85
2022/10/30 08:18:53;;;;;;;4.85;1.10;;;;;;;;;;6320291;22;20018;-84
2022/10/30 08:21:22;;;;;;;3.47;0.95;;;;;;;;;;6292524;22;20002;-84
2022/10/30 08:23:55;;;;;;;3.60;0.90;;;;;;;;;;6293245;22;20461;-85
2022/10/30 08:26:24;;;;;;;2.63;0.95;;;;;;;;;;6320147;22;20010;-83
2022/10/30 08:28:51;;;;;;;2.53;0.95;;;;;;;;;;6269733;22;20024;-83
2022/10/30 08:31:17;;;;;;;;;;;;;;;;;;6296401;22;20010;-85
2022/10/30 08:34:00;;;;;;;4.85;1.02;;;;;;;;;;6324539;22;19955;-84
2022/10/30 08:36:50;;;;;;;3.30;1.30;;;;;;;;;;6326155;22;20017;-86
2022/10/30 08:39:17;;;;;;;3.38;0.85;;;;;;;;;;6320586;22;20014;-84
2022/10/30 08:42:08;;;;;;;4.13;1.30;;;;;;;;;;6302342;22;19995;-84
2022/10/30 08:44:39;;;;;;;1.33;0.60;;;;;;;;;;6274324;22;20017;-83
2022/10/30 08:47:23;;;;;;;3.15;0.60;;;;;;;;;;6324440;22;20041;-84
2022/10/30 08:49:49;;;;;;;;;;;;;;;;;;6294624;22;20062;-84
2022/10/30 08:52:17;;;;;;;4.07;1.17;;;;;;;;;;6321109;22;20230;-85
2022/10/30 08:54:47;;;;;;;4.20;0.82;;;;;;;;;;6275787;22;20007;-82
2022/10/30 08:57:13;;;;;;;;;;;;;;;;;;6271935;22;20445;-83
2022/10/30 08:59:38;;;;;;;4.65;1.00;;;;;;;;;;6351707;22;19906;-83
2022/10/30 09:02:11;;;;;;;4.00;0.90;;;;;;;;;;6260822;22;20011;-84
2022/10/30 09:05:06;;;;;;;3.00;0.88;;;;;;;;;;6207760;22;20483;-84
2022/10/30 09:08:06;;;;;;;3.20;1.00;;;;;;;;;;6291027;22;20026;-84
2022/10/30 09:10:58;;;;;;;4.70;1.42;;;;;;;;;;6288753;22;20015;-83
2022/10/30 09:13:24;;;;;;;3.22;1.00;;;;;;;;;;6298208;22;20025;-84
2022/10/30 09:15:51;;;;;;;4.18;1.30;;;;;;;;;;6269640;22;19995;-83
2022/10/30 09:18:18;;;;;;;3.83;1.05;;;;;;;;;;6269430;22;20023;-84
2022/10/30 09:20:44;;;;;;;2.92;1.13;;;;;;;;;;6296991;22;20338;-84
2022/10/30 09:23:09;;;;;;;;;;;;;;;;;;6294786;22;20017;-84
2022/10/30 09:25:35;;;;;;;2.38;0.95;;;;;;;;;;6296053;22;19902;-83
2022/10/30 09:28:27;;;;;;;3.35;1.00;;;;;;;;;;6331216;22;20055;-84
2022/10/30 09:31:11;;;;;;;4.00;0.70;;;;;;;;;;6302897;22;20354;-83
2022/10/30 09:33:37;;;;;;;2.97;0.90;;;;;;;;;;6274153;22;20315;-84
2022/10/30 09:36:21;;;;;;;5.28;0.73;;;;;;;;;;6350032;22;20335;-84
2022/10/30 09:38:47;;;;;;;;;;;;;;;;;;6298833;22;19998;-84
2022/10/30 09:41:31;;;;;;;1.85;0.73;;;;;;;;;;6297092;22;19902;-85
2022/10/30 09:44:10;;;;;;;4.65;0.93;;;;;;;;;;6322936;22;20011;-85
2022/10/30 09:46:42;;;;;;;4.57;1.20;;;;;;;;;;6271517;22;20006;-84
2022/10/30 09:49:27;;;;;;;2.15;0.88;;;;;;;;;;6324507;22;19991;-86
2022/10/30 09:51:52;;;;;;;1.55;0.75;;;;;;;;;;6355993;22;20014;-83
2022/10/30 09:54:19;;;;;;;3.38;0.80;;;;;;;;;;6321701;22;20001;-84
2022/10/30 09:57:00;;;;;;;2.63;0.80;;;;;;;;;;6299390;22;20006;-86
2022/10/30 09:59:26;;;;;;;3.33;0.80;;;;;;;;;;6274659;22;20013;-84
2022/10/30 10:01:51;;;;;;;;;;;;;;;;;;6325063;22;20002;-83
2022/10/30 10:04:22;;;;;;;4.20;1.27;;;;;;;;;;6296739;22;19911;-84
2022/10/30 10:07:14;;;;;;;3.42;1.33;;;;;;;;;;6316988;22;20539;-84
2022/10/30 10:09:50;;;;;;;2.80;0.95;;;;;;;;;;6293213;22;20015;-84
2022/10/30 10:12:28;;;;;;;1.45;0.57;;;;;;;;;;6293626;22;20019;-84
2022/10/30 10:14:53;;;;;;;2.60;0.73;;;;;;;;;;6268624;22;20011;-84
2022/10/30 10:17:19;;;;;;;;;;;;;;;;;;6298016;22;19999;-85
2022/10/30 10:19:48;;;;;;;2.97;0.80;;;;;;;;;;6272861;22;19914;-84
2022/10/30 10:22:20;;;;;;;1.33;0.60;;;;;;;;;;6317040;22;20466;-84
2022/10/30 10:24:46;;;;;;;1.10;0.40;;;;;;;;;;6292224;22;20011;-84
2022/10/30 10:29:56;;;;;;;1.35;0.52;;;;;;;;;;6268238;22;20044;-84
2022/10/30 10:32:23;;;;;;;2.75;0.75;;;;;;;;;;6357530;22;20514;-83
2022/10/30 10:34:54;;;;;;;2.20;0.80;;;;;;;;;;6359813;22;20006;-85
2022/10/30 10:37:30;;;;;;;1.88;0.73;;;;;;;;;;6357177;22;20006;-84
2022/10/30 10:40:21;;;;;;;0.63;0.40;;;;;;;;;;6305659;22;20078;-83
2022/10/30 10:43:09;;;;;;;3.80;1.52;;;;;;;;;;6349051;22;20035;-84
2022/10/30 10:45:53;;;;;;;2.15;1.00;;;;;;;;;;6328077;22;20021;-85
2022/10/30 10:48:25;;;;;;;1.98;0.60;;;;;;;;;;6355486;22;20014;-84
2022/10/30 10:50:51;;;;;;;2.83;0.90;;;;;;;;;;6356755;22;20010;-84
2022/10/30 10:56:02;;;;;;;2.83;0.90;;;;;;;;;;6331303;22;20040;-89
2022/10/30 10:58:35;;;;;;;3.17;0.70;;;;;;;;;;6309499;22;20038;-89
2022/10/30 11:01:02;;;;;;;3.35;1.00;;;;;;;;;;6285307;22;20002;-85
2022/10/30 11:03:31;;;;;;;3.38;0.82;;;;;;;;;;6258076;22;20003;-86
2022/10/30 11:06:00;;;;;;;2.70;1.05;;;;;;;;;;6284513;22;19999;-88
2022/10/30 11:11:11;;;;;;;3.95;1.00;;;;;;;;;;6365798;22;20018;-88
2022/10/30 11:13:39;;;;;;;1.38;0.80;;;;;;;;;;6340335;22;19998;-87
2022/10/30 11:16:07;;;;;;;4.82;1.17;;;;;;;;;;6314806;22;19999;-86
2022/10/30 11:18:33;;;;;;;3.75;1.13;;;;;;;;;;6367350;22;19998;-87
2022/10/30 11:21:08;;;;;;;2.15;1.08;;;;;;;;;;6343124;22;19987;-89
2022/10/30 11:29:47;;;;;;;3.13;1.10;;;;;;;;;;6346650;22;19991;-87
2022/10/30 11:32:21;;;;;;;3.70;0.90;;;;;;;;;;6342894;22;20053;-87
2022/10/30 11:43:34;;;;;;;3.30;1.00;;;;;;;;;;6387958;22;20076;-87
2022/10/30 11:46:08;;;;;;;2.85;1.10;;;;;;;;;;6373105;22;19990;-87
2022/10/30 11:48:35;;;;;;;3.20;1.33;;;;;;;;;;6346049;22;20006;-87
2022/10/30 11:51:01;;;;;;;3.08;1.30;;;;;;;;;;6319133;22;19978;-87
2022/10/30 11:53:38;;;;;;;2.80;1.00;;;;;;;;;;6372345;22;20010;-87
2022/10/30 11:56:21;;;;;;;3.67;1.30;;;;;;;;;;6372188;22;20010;-90
2022/10/30 11:59:06;;;;;;;3.67;1.08;;;;;;;;;;6349199;22;19995;-88
2022/10/30 12:56:09;;;;;;;2.65;0.63;;;;;;;;;;6356913;22;20087;-85
2022/10/30 12:58:48;;;;;;;1.52;0.70;;;;;;;;;;6345621;22;19995;-87
2022/10/30 13:01:25;;;;;;;2.55;0.75;;;;;;;;;;6371716;22;20479;-87
2022/10/30 13:03:57;;;;;;;1.40;0.50;;;;;;;;;;6371373;22;19991;-86
2022/10/30 13:06:25;;;;;;;0.75;0.40;;;;;;;;;;6371202;22;19998;-87
2022/10/30 13:08:58;;;;;;;2.75;0.80;;;;;;;;;;6344722;22;20006;-89
2022/10/30 13:24:51;;;;;;;1.38;0.50;;;;;;;;;;6364444;22;20032;-88
2022/10/30 14:04:00;;;;;;;3.65;1.33;;;;;;;;;;6395114;22;20095;-87
2022/10/30 14:12:28;;;;;;;2.15;0.90;;;;;;;;;;6383156;22;20032;-85
2022/10/30 14:14:57;;;;;;;4.18;1.40;;;;;;;;;;6371024;22;20066;-85
2022/10/30 14:17:26;;;;;;;4.28;1.33;;;;;;;;;;6368895;22;19998;-86
2022/10/30 14:55:13;;;;;;;2.90;1.08;;;;;;;;;;6350677;22;20068;-87
2022/10/30 14:58:02;;;;;;;2.38;0.90;;;;;;;;;;6399175;22;19994;-87
2022/10/30 15:24:39;;;;;;;2.72;0.68;;;;;;;;;;6333446;22;20226;-89
2022/10/30 15:27:04;;;;;;;;;;;;;;;;;;6258424;22;20051;-89
2022/10/30 15:29:43;;;;;;;2.65;0.70;;;;;;;;;;6310125;22;19903;-88
2022/10/30 15:32:14;;;;;;;3.00;0.75;;;;;;;;;;6285009;22;19999;-88
2022/10/30 16:01:53;;;;;;;1.95;0.90;;;;;;;;;;6279640;22;20027;-88
2022/10/30 16:53:19;;;;;;;2.42;0.70;;;;;;;;;;6364430;22;20044;-88
2022/10/30 16:55:48;;;;;;;1.70;0.63;;;;;;;;;;6356467;22;20480;-87
2022/10/30 17:17:22;;;;;;;3.70;0.60;;;;;;;;;;6391986;22;20027;-88
2022/10/30 17:22:46;;;;;;;1.45;0.70;;;;;;;;;;6365486;22;20041;-85
2022/10/30 17:25:21;;;;;;;;;;;;;;;;;;6334618;22;20021;-84
2022/10/30 17:27:48;;;;;;;1.63;0.90;;;;;;;;;;6358757;22;20031;-84
2022/10/30 17:30:33;;;;;;;1.85;0.90;;;;;;;;;;6323138;22;20058;-85
2022/10/30 17:32:59;;;;;;;2.67;0.68;;;;;;;;;;6331958;22;20033;-86
2022/10/30 17:35:26;;;;;;;5.07;1.02;;;;;;;;;;6361462;22;20071;-82
2022/10/30 17:37:52;;;;;;;1.55;0.90;;;;;;;;;;6304449;22;20362;-83
2022/10/30 17:40:19;;;;;;;3.60;1.05;;;;;;;;;;6302115;22;20025;-84
2022/10/30 17:42:49;;;;;;;2.67;0.98;;;;;;;;;;6301605;22;20011;-83
2022/10/30 17:45:14;;;;;;;1.00;0.60;;;;;;;;;;6329172;22;20007;-82
2022/10/30 17:47:40;;;;;;;1.20;0.70;;;;;;;;;;6326681;22;20029;-83
2022/10/30 17:50:05;;;;;;;5.85;0.98;;;;;;;;;;6327666;22;20057;-84
2022/10/30 17:52:35;;;;;;;2.17;0.70;;;;;;;;;;6303008;22;20007;-81
2022/10/30 17:55:01;;;;;;;1.52;0.68;;;;;;;;;;6327999;22;20038;-84
2022/10/30 17:57:36;;;;;;;3.03;1.20;;;;;;;;;;6328300;22;19997;-85
2022/10/30 18:03:27;;;;;;;2.65;0.93;;;;;;;;;;6386544;22;20076;-83
2022/10/30 18:05:52;;;;;;;2.47;0.80;;;;;;;;;;6355240;22;20011;-83
2022/10/30 18:08:18;;;;;;;2.47;0.73;;;;;;;;;;6329219;22;20018;-82
2022/10/30 18:10:43;;;;;;;1.95;0.63;;;;;;;;;;6331452;22;20446;-83
2022/10/30 18:13:11;;;;;;;4.05;1.00;;;;;;;;;;6355668;22;20006;-84
2022/10/30 18:15:47;;;;;;;2.72;1.00;;;;;;;;;;6332453;22;20006;-84
2022/10/30 18:18:13;;;;;;;;;;;;;;;;;;6330227;22;20014;-83
2022/10/30 18:20:39;;;;;;;3.10;1.40;;;;;;;;;;6386242;22;19909;-83
2022/10/30 18:23:05;;;;;;;5.82;2.00;;;;;;;;;;6357174;22;20002;-81
2022/10/30 18:25:32;;;;;;;2.67;1.30;;;;;;;;;;6354517;22;20002;-83
2022/10/30 18:27:58;;;;;;;2.95;1.25;;;;;;;;;;6326563;22;20010;-83
2022/10/30 18:30:23;;;;;;;7.38;1.90;;;;;;;;;;6353401;22;20005;-82
2022/10/30 18:35:34;;;;;;;2.13;1.08;;;;;;;;;;6365873;22;20026;-82
2022/10/30 18:38:00;;;;;;;2.78;1.20;;;;;;;;;;6330767;22;20010;-82
2022/10/30 18:40:26;;;;;;;5.10;1.27;;;;;;;;;;6330878;22;20005;-82
2022/10/30 18:42:51;;;;;;;2.30;0.90;;;;;;;;;;6306269;22;20029;-83
2022/10/30 18:45:18;;;;;;;2.33;1.05;;;;;;;;;;6329857;22;19994;-82
2022/10/30 18:55:43;;;;;;;3.55;1.55;;;;;;;;;;6291798;22;20091;-82
2022/10/30 18:58:10;;;;;;;2.65;0.75;;;;;;;;;;6340600;22;20034;-86
2022/10/30 19:17:02;;;;;;;1.45;0.75;;;;;;;;;;6344108;22;20060;-88
2022/10/30 19:22:20;;;;;;;1.25;0.70;;;;;;;;;;6384180;22;20056;-86
2022/10/30 19:24:45;;;;;;;4.70;0.70;;;;;;;;;;6339152;22;20054;-86
2022/10/30 19:27:11;;;;;;;4.80;0.90;;;;;;;;;;6340804;22;20010;-86
2022/10/30 19:29:37;;;;;;;1.70;0.77;;;;;;;;;;6313247;22;20028;-86
2022/10/30 19:32:02;;;;;;;1.52;0.80;;;;;;;;;;6339471;22;20045;-87
2022/10/30 19:34:28;;;;;;;2.25;0.90;;;;;;;;;;6340143;22;20415;-87
2022/10/30 19:39:21;;;;;;;2.30;0.93;;;;;;;;;;6337125;22;20023;-86
2022/10/30 19:44:30;;;;;;;2.17;0.85;;;;;;;;;;6394409;22;20052;-86
2022/10/30 19:46:57;;;;;;;0.65;0.55;;;;;;;;;;6338752;22;20061;-85
2022/10/30 19:49:22;;;;;;;1.88;1.17;;;;;;;;;;6314745;22;20024;-86
2022/10/30 19:51:48;;;;;;;2.00;1.05;;;;;;;;;;6317788;22;19990;-86
2022/10/30 19:54:15;;;;;;;1.70;1.05;;;;;;;;;;6343203;22;20033;-87
2022/10/30 19:56:43;;;;;;;4.50;1.45;;;;;;;;;;6343274;22;20469;-85
2022/10/30 19:59:13;;;;;;;3.08;0.80;;;;;;;;;;6344047;22;19987;-86
2022/10/30 20:10:51;;;;;;;4.05;0.80;;;;;;;;;;6384000;22;20056;-86
2022/10/30 20:13:19;;;;;;;2.60;0.90;;;;;;;;;;6338467;22;20032;-86
2022/10/30 20:15:45;;;;;;;2.00;0.60;;;;;;;;;;6285533;22;20003;-86
2022/10/30 20:18:15;;;;;;;2.92;0.70;;;;;;;;;;6311329;22;20009;-87
2022/10/30 20:20:48;;;;;;;1.65;0.70;;;;;;;;;;6336470;22;20078;-85
2022/10/30 20:23:14;;;;;;;1.27;0.68;;;;;;;;;;6311069;22;19991;-85
2022/10/30 20:25:41;;;;;;;2.05;0.68;;;;;;;;;;6312194;22;19994;-88
2022/10/30 20:28:21;;;;;;;3.92;0.70;;;;;;;;;;6283522;22;20014;-86
2022/10/30 20:30:47;;;;;;;1.55;0.65;;;;;;;;;;6309896;22;20015;-85
2022/10/30 20:33:13;;;;;;;1.33;0.70;;;;;;;;;;6286119;22;20061;-85
2022/10/30 20:35:39;;;;;;;1.52;0.57;;;;;;;;;;6311153;22;20010;-85
2022/10/30 20:38:06;;;;;;;0.85;0.70;;;;;;;;;;6310833;22;20006;-85
2022/10/30 20:40:31;;;;;;;1.13;0.55;;;;;;;;;;6227197;22;20102;-85
2022/10/30 20:42:57;;;;;;;4.00;0.90;;;;;;;;;;6340584;22;20085;-87
2022/10/30 20:45:25;;;;;;;1.20;0.63;;;;;;;;;;6341159;22;20006;-84
2022/10/30 20:47:59;;;;;;;2.75;0.80;;;;;;;;;;6343236;22;20084;-87
2022/10/30 20:50:25;;;;;;;1.50;0.70;;;;;;;;;;6369638;22;20002;-85
2022/10/30 20:52:52;;;;;;;1.30;0.60;;;;;;;;;;6316000;22;20006;-86
2022/10/30 20:55:19;;;;;;;1.48;0.60;;;;;;;;;;6343352;22;19999;-85
2022/10/30 20:57:57;;;;;;;1.13;0.70;;;;;;;;;;6341378;22;20355;-85
2022/10/30 21:00:23;;;;;;;2.13;0.90;;;;;;;;;;6367154;22;20062;-86
2022/10/30 21:02:50;;;;;;;1.02;0.70;;;;;;;;;;6367453;22;20021;-86